In Rescue
 
Open Full Screen Window  High Contrast Mode
Wind Gusting 00 knots
04
January 25, 2020 1:18 AM GMT
Weather Information
Wind Direction
  190 °
Wind Speed
  04 kt (5 mph)
Wind Gust
  00 kt (0 mph)
Altimeter
30.32 in
Visibility
10 SM
Temperature
02° C
36° F
Dewpoint
-08° C
18° F
Humidity
48%
1hr Rain Fall
00.00 in.
24hr Rain Fall
00.00 in.
Sky Condition
Clear
VFR

METAR K6B0 250118Z AUTO 19004KT 10SM CLR 02/M08 A3032 RMK AO2 T00161080

FAA Disclaimer: The data displayed is for advisory purposes only and is not to be used for flight planning or operations.